Time;durP1;ratioP1;P1;durP2;ratioP2;P2;SDS_P1;SDS_P2;PMS_P1;PMS_P2;Temp;Humidity;BMP_temperature;BMP_pressure;BME280_temperature;BME280_humidity;BME280_pressure;Samples;Min_cycle;Max_cycle;Signal;HPM_P1;HPM_P2
2022/12/01 00:00:25;;;;;;;0.10;0.10;;;;;;;;;;5071002;28;20033;-72
2022/12/01 00:02:50;;;;;;;2.75;2.13;;;;;;;;;;5070951;28;20039;-72
2022/12/01 00:05:15;;;;;;;0.10;0.10;;;;;;;;;;5069500;28;20040;-73
2022/12/01 00:07:41;;;;;;;0.57;0.57;;;;;;;;;;5070489;28;20071;-74
2022/12/01 00:10:27;;;;;;;0.20;0.20;;;;;;;;;;5070506;28;20052;-72
2022/12/01 00:12:53;;;;;;;2.20;0.82;;;;;;;;;;5069183;28;20036;-72
2022/12/01 00:15:18;;;;;;;0.28;0.28;;;;;;;;;;5069844;28;20364;-72
2022/12/01 00:17:44;;;;;;;0.43;0.43;;;;;;;;;;5074071;28;20456;-72
2022/12/01 00:20:10;;;;;;;1.83;0.98;;;;;;;;;;5074315;28;20020;-71
2022/12/01 00:22:36;;;;;;;0.88;0.88;;;;;;;;;;5072795;28;20380;-72
2022/12/01 00:25:01;;;;;;;1.52;1.45;;;;;;;;;;5072854;28;20032;-71
2022/12/01 00:27:27;;;;;;;0.20;0.20;;;;;;;;;;5074017;28;20036;-71
2022/12/01 00:29:52;;;;;;;0.10;0.10;;;;;;;;;;5073648;28;20433;-72
2022/12/01 00:32:18;;;;;;;3.60;3.35;;;;;;;;;;5073754;28;20081;-71
2022/12/01 00:34:43;;;;;;;0.40;0.40;;;;;;;;;;5073800;28;20060;-71
2022/12/01 00:37:09;;;;;;;1.50;1.40;;;;;;;;;;5073928;28;20024;-72
2022/12/01 00:39:34;;;;;;;0.17;0.17;;;;;;;;;;5073790;28;20028;-72
2022/12/01 00:41:59;;;;;;;0.30;0.30;;;;;;;;;;5073688;28;20108;-74
2022/12/01 00:44:25;;;;;;;0.52;0.52;;;;;;;;;;5073455;28;20051;-74
2022/12/01 00:46:51;;;;;;;1.45;1.08;;;;;;;;;;5073448;28;20025;-74
2022/12/01 00:49:16;;;;;;;0.52;0.50;;;;;;;;;;5073721;28;20029;-74
2022/12/01 00:51:41;;;;;;;0.20;0.20;;;;;;;;;;5072297;28;20027;-75
2022/12/01 00:54:07;;;;;;;1.05;0.95;;;;;;;;;;5073600;28;20017;-72
2022/12/01 00:56:32;;;;;;;1.55;1.45;;;;;;;;;;5073222;28;20029;-72
2022/12/01 00:58:58;;;;;;;3.30;3.10;;;;;;;;;;5070580;28;20028;-73
2022/12/01 01:01:23;;;;;;;5.90;2.65;;;;;;;;;;5062966;28;20029;-72
2022/12/01 01:03:49;;;;;;;0.52;0.52;;;;;;;;;;5053635;28;20048;-73
2022/12/01 01:06:14;;;;;;;0.20;0.20;;;;;;;;;;5053301;28;20079;-72
2022/12/01 01:08:40;;;;;;;0.25;0.25;;;;;;;;;;5097265;28;20538;-71
2022/12/01 01:11:05;;;;;;;1.33;1.23;;;;;;;;;;5073595;28;20025;-72
2022/12/01 01:13:31;;;;;;;3.85;3.65;;;;;;;;;;5073323;28;20137;-71
2022/12/01 01:15:57;;;;;;;0.30;0.30;;;;;;;;;;5073402;28;20048;-72
2022/12/01 01:18:24;;;;;;;0.20;0.20;;;;;;;;;;5073522;28;20028;-72
2022/12/01 01:20:56;;;;;;;0.22;0.22;;;;;;;;;;5072579;28;20154;-71
2022/12/01 01:23:21;;;;;;;0.22;0.20;;;;;;;;;;5073119;28;20036;-72
2022/12/01 01:25:47;;;;;;;0.10;0.10;;;;;;;;;;5073194;28;20094;-73
2022/12/01 01:28:12;;;;;;;1.00;1.00;;;;;;;;;;5073193;28;20019;-72
2022/12/01 01:30:38;;;;;;;2.72;1.85;;;;;;;;;;5072950;28;20056;-73
2022/12/01 01:33:03;;;;;;;1.58;1.48;;;;;;;;;;5073562;28;20411;-72
2022/12/01 01:35:29;;;;;;;0.10;0.10;;;;;;;;;;5073107;28;20094;-71
2022/12/01 01:37:54;;;;;;;0.80;0.80;;;;;;;;;;5073167;28;20426;-71
2022/12/01 01:40:20;;;;;;;2.85;2.25;;;;;;;;;;5073045;28;20460;-71
2022/12/01 01:42:45;;;;;;;0.15;0.15;;;;;;;;;;5072989;28;20456;-71
2022/12/01 01:45:24;;;;;;;0.10;0.10;;;;;;;;;;5072823;28;20048;-72
2022/12/01 01:47:51;;;;;;;0.55;0.55;;;;;;;;;;5072006;28;20028;-71
2022/12/01 01:50:18;;;;;;;6.60;1.98;;;;;;;;;;5066676;28;20472;-71
2022/12/01 01:52:45;;;;;;;1.30;1.30;;;;;;;;;;5053052;28;20029;-72
2022/12/01 01:55:11;;;;;;;0.30;0.30;;;;;;;;;;5052957;28;20036;-73
2022/12/01 01:57:37;;;;;;;0.10;0.10;;;;;;;;;;5052741;28;20064;-73
2022/12/01 02:00:07;;;;;;;0.52;0.52;;;;;;;;;;5052781;28;20060;-72
2022/12/01 02:02:39;;;;;;;1.48;1.40;;;;;;;;;;5065305;28;20039;-73
2022/12/01 02:05:09;;;;;;;0.10;0.10;;;;;;;;;;5072173;28;20036;-72
2022/12/01 02:07:36;;;;;;;4.20;3.88;;;;;;;;;;5072853;28;20036;-73
2022/12/01 02:10:01;;;;;;;2.00;1.90;;;;;;;;;;5072830;28;20035;-73
2022/12/01 02:12:36;;;;;;;0.10;0.10;;;;;;;;;;5072402;28;20020;-72
2022/12/01 02:15:12;;;;;;;0.20;0.20;;;;;;;;;;5072644;28;20118;-72
2022/12/01 02:17:47;;;;;;;2.05;1.95;;;;;;;;;;5072921;28;20028;-72
2022/12/01 02:20:35;;;;;;;0.35;0.35;;;;;;;;;;5073688;28;20054;-72
2022/12/01 02:23:23;;;;;;;0.57;0.57;;;;;;;;;;5068264;28;20036;-72
2022/12/01 02:26:07;;;;;;;1.70;1.60;;;;;;;;;;5076438;28;20044;-71
2022/12/01 02:28:35;;;;;;;3.10;1.05;;;;;;;;;;5076287;28;20444;-72
2022/12/01 02:31:04;;;;;;;0.10;0.10;;;;;;;;;;5076225;28;20028;-72
2022/12/01 02:33:39;;;;;;;1.02;1.00;;;;;;;;;;5076080;28;20032;-72
2022/12/01 02:36:14;;;;;;;1.88;1.75;;;;;;;;;;5076726;28;20048;-72
2022/12/01 02:38:45;;;;;;;0.10;0.10;;;;;;;;;;5075161;28;20039;-73
2022/12/01 02:41:30;;;;;;;0.10;0.10;;;;;;;;;;5076158;28;20029;-72
2022/12/01 02:43:56;;;;;;;0.10;0.10;;;;;;;;;;5075420;28;20092;-72
2022/12/01 02:46:21;;;;;;;0.68;0.68;;;;;;;;;;5076227;28;20452;-72
2022/12/01 02:48:48;;;;;;;2.67;1.85;;;;;;;;;;5075902;28;20063;-72
2022/12/01 02:51:16;;;;;;;0.80;0.75;;;;;;;;;;5075905;28;20040;-71
2022/12/01 02:53:42;;;;;;;0.80;0.60;;;;;;;;;;5075962;28;20040;-72
2022/12/01 02:56:11;;;;;;;1.40;0.80;;;;;;;;;;5076065;28;20033;-71
2022/12/01 02:58:37;;;;;;;0.45;0.45;;;;;;;;;;5075814;28;20494;-72
2022/12/01 03:01:17;;;;;;;1.77;1.42;;;;;;;;;;5074758;28;20029;-72
2022/12/01 03:03:51;;;;;;;1.33;1.23;;;;;;;;;;5057840;28;20078;-72
2022/12/01 03:06:28;;;;;;;0.10;0.10;;;;;;;;;;5075624;28;20036;-71
2022/12/01 03:08:54;;;;;;;1.48;1.38;;;;;;;;;;5075392;28;20060;-72
2022/12/01 03:11:27;;;;;;;0.10;0.10;;;;;;;;;;5075775;28;20052;-71
2022/12/01 03:13:52;;;;;;;0.43;0.38;;;;;;;;;;5075961;28;20032;-72
2022/12/01 03:16:26;;;;;;;2.55;1.10;;;;;;;;;;5075200;28;20488;-72
2022/12/01 03:18:51;;;;;;;0.03;0.03;;;;;;;;;;5055380;28;20055;-72
2022/12/01 03:21:22;;;;;;;0.10;0.10;;;;;;;;;;5055264;28;20033;-72
2022/12/01 03:23:52;;;;;;;1.48;1.45;;;;;;;;;;5055251;28;20029;-72
2022/12/01 03:26:17;;;;;;;;;;;;;;;;;;5055979;28;20103;-72
2022/12/01 03:28:45;;;;;;;1.27;1.20;;;;;;;;;;5074229;28;19971;-72
2022/12/01 03:31:13;;;;;;;0.85;0.85;;;;;;;;;;5074849;28;20024;-72
2022/12/01 03:33:42;;;;;;;0.35;0.35;;;;;;;;;;5073968;28;20032;-72
2022/12/01 03:36:24;;;;;;;0.30;0.30;;;;;;;;;;5074875;28;20040;-72
2022/12/01 03:38:52;;;;;;;0.30;0.30;;;;;;;;;;5074956;28;20028;-71
2022/12/01 03:41:21;;;;;;;0.80;0.80;;;;;;;;;;5074952;28;20028;-73
2022/12/01 03:43:53;;;;;;;0.20;0.20;;;;;;;;;;5074999;28;20482;-72
2022/12/01 03:46:28;;;;;;;0.10;0.10;;;;;;;;;;5074612;28;20182;-73
2022/12/01 03:48:54;;;;;;;1.88;1.77;;;;;;;;;;5075069;28;20078;-71
2022/12/01 03:51:38;;;;;;;1.65;1.55;;;;;;;;;;5074813;28;20104;-71
2022/12/01 03:54:15;;;;;;;1.48;1.38;;;;;;;;;;5074770;28;20025;-72
2022/12/01 03:56:46;;;;;;;0.30;0.30;;;;;;;;;;5073892;28;20024;-72
2022/12/01 03:59:13;;;;;;;0.17;0.17;;;;;;;;;;5073286;28;20028;-71
2022/12/01 04:01:39;;;;;;;0.30;0.30;;;;;;;;;;5073772;28;20036;-71
2022/12/01 04:04:05;;;;;;;2.20;1.35;;;;;;;;;;5068113;28;20031;-74
2022/12/01 04:06:31;;;;;;;0.30;0.30;;;;;;;;;;5070706;28;20499;-73
2022/12/01 04:08:56;;;;;;;0.30;0.30;;;;;;;;;;5070524;28;20046;-72
2022/12/01 04:14:06;;;;;;;0.10;0.10;;;;;;;;;;5070917;28;20029;-74
2022/12/01 04:16:32;;;;;;;0.10;0.10;;;;;;;;;;5067954;28;20468;-72
2022/12/01 04:18:57;;;;;;;3.50;1.58;;;;;;;;;;5070299;28;20781;-72
2022/12/01 04:21:22;;;;;;;1.20;1.20;;;;;;;;;;5064345;28;20493;-73
2022/12/01 04:24:00;;;;;;;0.10;0.10;;;;;;;;;;5066852;28;20129;-71
2022/12/01 04:26:26;;;;;;;1.10;1.08;;;;;;;;;;5070516;28;20518;-73
2022/12/01 04:28:52;;;;;;;0.20;0.20;;;;;;;;;;5068347;28;20029;-71
2022/12/01 04:31:17;;;;;;;0.10;0.10;;;;;;;;;;5070143;28;20086;-72
2022/12/01 04:33:43;;;;;;;2.17;1.20;;;;;;;;;;5069821;28;20025;-72
2022/12/01 04:36:08;;;;;;;0.47;0.47;;;;;;;;;;5070155;28;20063;-75
2022/12/01 04:38:35;;;;;;;0.10;0.10;;;;;;;;;;5070098;28;20515;-75
2022/12/01 04:41:07;;;;;;;0.30;0.30;;;;;;;;;;5070135;28;20032;-73
2022/12/01 04:43:32;;;;;;;0.45;0.45;;;;;;;;;;5068734;28;20535;-72
2022/12/01 04:45:58;;;;;;;0.30;0.30;;;;;;;;;;5069218;28;20143;-72
2022/12/01 04:48:23;;;;;;;2.10;1.95;;;;;;;;;;5070242;28;20033;-73
2022/12/01 04:50:48;;;;;;;0.30;0.30;;;;;;;;;;5070320;28;20056;-72
2022/12/01 04:53:14;;;;;;;0.88;0.88;;;;;;;;;;5069697;28;20021;-73
2022/12/01 04:55:39;;;;;;;0.10;0.10;;;;;;;;;;5069481;28;20032;-73
2022/12/01 04:58:05;;;;;;;0.10;0.10;;;;;;;;;;5069016;28;20464;-74
2022/12/01 05:00:31;;;;;;;0.63;0.63;;;;;;;;;;5069019;28;20479;-74
2022/12/01 05:02:57;;;;;;;0.20;0.20;;;;;;;;;;5066293;28;20035;-73
2022/12/01 05:05:22;;;;;;;0.10;0.10;;;;;;;;;;5069607;28;20029;-72
2022/12/01 05:07:48;;;;;;;0.00;0.00;;;;;;;;;;5069138;28;20420;-73
2022/12/01 05:10:13;;;;;;;0.32;0.32;;;;;;;;;;5068989;28;20036;-76
2022/12/01 05:12:40;;;;;;;0.10;0.10;;;;;;;;;;5069676;28;20024;-74
2022/12/01 05:15:06;;;;;;;0.20;0.20;;;;;;;;;;5069678;28;20040;-72
2022/12/01 05:17:31;;;;;;;0.45;0.45;;;;;;;;;;5067828;28;20024;-75
2022/12/01 05:22:41;;;;;;;0.40;0.40;;;;;;;;;;5069402;28;20032;-73
2022/12/01 05:25:06;;;;;;;0.10;0.10;;;;;;;;;;5069567;28;20464;-72
2022/12/01 05:27:32;;;;;;;0.73;0.73;;;;;;;;;;5069237;28;20027;-71
2022/12/01 05:29:57;;;;;;;0.40;0.40;;;;;;;;;;5067496;28;20135;-71
2022/12/01 05:32:22;;;;;;;0.13;0.13;;;;;;;;;;5070177;28;20439;-72
2022/12/01 05:34:48;;;;;;;0.10;0.10;;;;;;;;;;5069714;28;20089;-73
2022/12/01 05:37:13;;;;;;;0.20;0.20;;;;;;;;;;5069602;28;20028;-72
2022/12/01 05:39:39;;;;;;;0.10;0.10;;;;;;;;;;5069067;28;20028;-75
2022/12/01 05:42:04;;;;;;;0.20;0.20;;;;;;;;;;5069725;28;20016;-72
2022/12/01 05:44:30;;;;;;;1.33;1.33;;;;;;;;;;5068972;28;20479;-73
2022/12/01 05:46:55;;;;;;;0.10;0.10;;;;;;;;;;5067577;28;20594;-72
2022/12/01 05:49:21;;;;;;;0.10;0.10;;;;;;;;;;5069303;28;20021;-72
2022/12/01 05:51:46;;;;;;;0.17;0.17;;;;;;;;;;5067937;28;20017;-73
2022/12/01 05:54:11;;;;;;;0.10;0.10;;;;;;;;;;5068693;28;20483;-73
2022/12/01 05:56:37;;;;;;;0.20;0.20;;;;;;;;;;5072565;28;20062;-71
2022/12/01 05:59:02;;;;;;;0.10;0.10;;;;;;;;;;5072217;28;20031;-73
2022/12/01 06:01:28;;;;;;;0.10;0.10;;;;;;;;;;5070673;28;20036;-75
2022/12/01 06:03:53;;;;;;;0.10;0.10;;;;;;;;;;5071826;28;20025;-73
2022/12/01 06:06:19;;;;;;;0.08;0.08;;;;;;;;;;5066852;28;20042;-72
2022/12/01 06:08:44;;;;;;;0.00;0.00;;;;;;;;;;5071880;28;20024;-71
2022/12/01 06:11:10;;;;;;;0.20;0.20;;;;;;;;;;5072224;28;20032;-74
2022/12/01 06:13:35;;;;;;;0.20;0.20;;;;;;;;;;5072379;28;20024;-70
2022/12/01 06:16:02;;;;;;;0.10;0.10;;;;;;;;;;5072600;28;20036;-72
2022/12/01 06:18:29;;;;;;;0.10;0.10;;;;;;;;;;5070943;28;20388;-73
2022/12/01 06:20:55;;;;;;;1.02;0.77;;;;;;;;;;5068145;28;20487;-74
2022/12/01 06:23:20;;;;;;;0.40;0.40;;;;;;;;;;5063291;28;20023;-72
2022/12/01 06:25:46;;;;;;;1.58;1.55;;;;;;;;;;5068580;28;20112;-73
2022/12/01 06:28:11;;;;;;;0.10;0.10;;;;;;;;;;5066789;28;20021;-74
2022/12/01 06:30:37;;;;;;;0.10;0.10;;;;;;;;;;5070114;28;20029;-74
2022/12/01 06:33:02;;;;;;;1.20;1.10;;;;;;;;;;5070933;28;20024;-74
2022/12/01 06:35:28;;;;;;;0.65;0.65;;;;;;;;;;5071710;28;20593;-72
2022/12/01 06:37:53;;;;;;;4.35;3.95;;;;;;;;;;5063653;28;20055;-73
2022/12/01 06:40:18;;;;;;;0.15;0.15;;;;;;;;;;5067793;28;20031;-72
2022/12/01 06:42:44;;;;;;;0.10;0.10;;;;;;;;;;5062132;28;20811;-73
2022/12/01 06:45:10;;;;;;;0.55;0.55;;;;;;;;;;5069932;28;20056;-74
2022/12/01 06:47:35;;;;;;;0.10;0.10;;;;;;;;;;5069257;28;20036;-76
2022/12/01 06:50:01;;;;;;;0.10;0.10;;;;;;;;;;5071463;28;20028;-73
2022/12/01 06:52:27;;;;;;;1.95;1.52;;;;;;;;;;5068092;28;20039;-74
2022/12/01 06:54:52;;;;;;;0.15;0.15;;;;;;;;;;5055761;28;20029;-72
2022/12/01 06:57:17;;;;;;;1.30;1.20;;;;;;;;;;5054287;28;20025;-71
2022/12/01 06:59:43;;;;;;;0.17;0.17;;;;;;;;;;5069976;28;20371;-73
2022/12/01 07:02:09;;;;;;;0.10;0.10;;;;;;;;;;5070533;28;20029;-72
2022/12/01 07:04:34;;;;;;;1.55;1.50;;;;;;;;;;5069609;28;20032;-74
2022/12/01 07:07:00;;;;;;;0.15;0.15;;;;;;;;;;5067551;28;20021;-72
2022/12/01 07:09:25;;;;;;;0.10;0.10;;;;;;;;;;5069082;28;20040;-72
2022/12/01 07:11:51;;;;;;;0.10;0.10;;;;;;;;;;5070095;28;20040;-69
2022/12/01 07:14:21;;;;;;;0.40;0.40;;;;;;;;;;5063916;28;20021;-71
2022/12/01 07:16:47;;;;;;;0.10;0.10;;;;;;;;;;5070156;28;20040;-70
2022/12/01 07:19:12;;;;;;;0.10;0.10;;;;;;;;;;5070753;28;20020;-71
2022/12/01 07:21:37;;;;;;;0.10;0.10;;;;;;;;;;5070267;28;20472;-72
2022/12/01 07:24:03;;;;;;;0.65;0.65;;;;;;;;;;5070809;28;20032;-72
2022/12/01 07:26:28;;;;;;;0.32;0.32;;;;;;;;;;5070911;28;20071;-71
2022/12/01 07:28:54;;;;;;;0.20;0.20;;;;;;;;;;5071165;28;20036;-71
2022/12/01 07:31:19;;;;;;;0.30;0.30;;;;;;;;;;5070076;28;20058;-73
2022/12/01 07:33:45;;;;;;;0.20;0.20;;;;;;;;;;5068176;28;20028;-76
2022/12/01 07:36:11;;;;;;;2.28;0.85;;;;;;;;;;5069966;28;20028;-71
2022/12/01 07:38:36;;;;;;;0.10;0.10;;;;;;;;;;5070774;28;20025;-72
2022/12/01 07:41:07;;;;;;;0.13;0.13;;;;;;;;;;5070379;28;20452;-71
2022/12/01 07:43:32;;;;;;;0.20;0.20;;;;;;;;;;5070801;28;20028;-73
2022/12/01 07:46:05;;;;;;;0.73;0.73;;;;;;;;;;5069928;28;20416;-73
2022/12/01 07:48:31;;;;;;;0.20;0.20;;;;;;;;;;5071386;28;20024;-72
2022/12/01 07:50:56;;;;;;;0.20;0.20;;;;;;;;;;5070570;28;20047;-73
2022/12/01 07:53:22;;;;;;;0.10;0.10;;;;;;;;;;5070108;28;20457;-75
2022/12/01 07:55:49;;;;;;;0.10;0.10;;;;;;;;;;5069639;28;20024;-71
2022/12/01 07:58:14;;;;;;;0.10;0.10;;;;;;;;;;5069394;28;20411;-72
2022/12/01 08:00:40;;;;;;;0.20;0.20;;;;;;;;;;5069242;28;20029;-71
2022/12/01 08:03:05;;;;;;;2.35;2.15;;;;;;;;;;5069593;28;20480;-73
2022/12/01 08:05:30;;;;;;;13.43;5.03;;;;;;;;;;5069029;28;20486;-71
2022/12/01 08:07:56;;;;;;;0.32;0.32;;;;;;;;;;5069955;28;20440;-72
2022/12/01 08:10:21;;;;;;;0.20;0.20;;;;;;;;;;5051529;28;20033;-71
2022/12/01 08:12:47;;;;;;;0.10;0.10;;;;;;;;;;5069911;28;20027;-72
2022/12/01 08:15:12;;;;;;;4.38;2.72;;;;;;;;;;5068328;28;20017;-72
2022/12/01 08:17:38;;;;;;;0.10;0.10;;;;;;;;;;5068326;28;20074;-71
2022/12/01 08:20:04;;;;;;;0.10;0.10;;;;;;;;;;5069217;28;20036;-70
2022/12/01 08:22:29;;;;;;;1.23;1.13;;;;;;;;;;5067982;28;20111;-72
2022/12/01 08:24:54;;;;;;;0.93;0.85;;;;;;;;;;5069041;28;20590;-71
2022/12/01 08:27:20;;;;;;;0.10;0.10;;;;;;;;;;5069478;28;20027;-73
2022/12/01 08:29:45;;;;;;;1.08;1.08;;;;;;;;;;5066674;28;20111;-72
2022/12/01 08:32:11;;;;;;;1.45;1.00;;;;;;;;;;5064332;28;20034;-72
2022/12/01 08:34:37;;;;;;;0.60;0.60;;;;;;;;;;5067994;28;20040;-73
2022/12/01 08:37:03;;;;;;;0.20;0.20;;;;;;;;;;5064321;28;20028;-72
2022/12/01 08:39:28;;;;;;;0.30;0.30;;;;;;;;;;5049439;28;20035;-72
2022/12/01 08:41:54;;;;;;;0.10;0.10;;;;;;;;;;5065574;28;20016;-72
2022/12/01 08:44:19;;;;;;;0.68;0.68;;;;;;;;;;5049753;28;20383;-72
2022/12/01 08:46:44;;;;;;;0.43;0.43;;;;;;;;;;5060115;28;20027;-73
2022/12/01 08:49:10;;;;;;;0.20;0.20;;;;;;;;;;5050020;28;20056;-72
2022/12/01 08:51:35;;;;;;;0.45;0.22;;;;;;;;;;5052882;28;20039;-71
2022/12/01 08:54:01;;;;;;;0.20;0.20;;;;;;;;;;5061425;28;20033;-71
2022/12/01 08:56:28;;;;;;;0.10;0.10;;;;;;;;;;5054972;28;20046;-71
2022/12/01 08:58:54;;;;;;;0.10;0.10;;;;;;;;;;5058981;28;20115;-72
2022/12/01 09:01:21;;;;;;;0.40;0.40;;;;;;;;;;5079867;28;20055;-72
2022/12/01 09:03:46;;;;;;;0.10;0.10;;;;;;;;;;5049881;28;20033;-71
2022/12/01 09:06:16;;;;;;;0.10;0.10;;;;;;;;;;5064664;28;20043;-70
2022/12/01 09:08:42;;;;;;;0.20;0.20;;;;;;;;;;5060281;28;20100;-71
2022/12/01 09:11:12;;;;;;;0.80;0.80;;;;;;;;;;5045690;28;20520;-73
2022/12/01 09:13:38;;;;;;;0.30;0.30;;;;;;;;;;5062848;28;20081;-72
2022/12/01 09:16:09;;;;;;;0.22;0.22;;;;;;;;;;5050599;28;20020;-72
2022/12/01 09:18:34;;;;;;;0.10;0.10;;;;;;;;;;5068506;28;20039;-71
2022/12/01 09:21:07;;;;;;;0.25;0.25;;;;;;;;;;5068756;28;20028;-72
2022/12/01 09:23:33;;;;;;;0.73;0.73;;;;;;;;;;5068855;28;20035;-75
2022/12/01 09:25:59;;;;;;;0.17;0.17;;;;;;;;;;5068660;28;20029;-71
2022/12/01 09:28:24;;;;;;;0.28;0.28;;;;;;;;;;5067981;28;20063;-71
2022/12/01 09:30:50;;;;;;;0.50;0.50;;;;;;;;;;5064619;28;20058;-71
2022/12/01 09:33:15;;;;;;;0.20;0.20;;;;;;;;;;5065836;28;20029;-72
2022/12/01 09:35:41;;;;;;;0.20;0.20;;;;;;;;;;5066868;28;20546;-71
2022/12/01 09:38:06;;;;;;;0.13;0.13;;;;;;;;;;5067619;28;20035;-71
2022/12/01 09:40:40;;;;;;;0.30;0.30;;;;;;;;;;5066294;28;20024;-68
2022/12/01 09:43:14;;;;;;;0.10;0.10;;;;;;;;;;5065938;28;20032;-69
2022/12/01 09:45:43;;;;;;;0.10;0.10;;;;;;;;;;5065856;28;20056;-68
2022/12/01 09:48:12;;;;;;;0.20;0.20;;;;;;;;;;5048961;28;20046;-68
2022/12/01 09:50:38;;;;;;;0.20;0.20;;;;;;;;;;5066735;28;20040;-70
2022/12/01 09:53:07;;;;;;;0.10;0.10;;;;;;;;;;5058750;28;20021;-69
2022/12/01 09:55:33;;;;;;;0.20;0.20;;;;;;;;;;5065566;28;20028;-70
2022/12/01 09:58:00;;;;;;;0.30;0.30;;;;;;;;;;5067609;28;20363;-68
2022/12/01 10:00:27;;;;;;;0.30;0.30;;;;;;;;;;5050497;28;20033;-69
2022/12/01 10:03:00;;;;;;;0.20;0.20;;;;;;;;;;5062812;28;20025;-71
2022/12/01 10:05:42;;;;;;;0.20;0.20;;;;;;;;;;5056172;28;20488;-68
2022/12/01 10:08:12;;;;;;;0.22;0.22;;;;;;;;;;5048853;28;20481;-69
2022/12/01 10:10:45;;;;;;;0.20;0.20;;;;;;;;;;5065799;28;20028;-69
2022/12/01 10:13:16;;;;;;;0.20;0.20;;;;;;;;;;5068441;28;20024;-69
2022/12/01 10:15:57;;;;;;;0.13;0.13;;;;;;;;;;5067202;28;20107;-69
2022/12/01 10:18:35;;;;;;;0.30;0.30;;;;;;;;;;5068465;28;20467;-68
2022/12/01 10:21:10;;;;;;;0.10;0.10;;;;;;;;;;5068478;28;20052;-69
2022/12/01 10:23:39;;;;;;;1.42;1.42;;;;;;;;;;5068622;28;20036;-69
2022/12/01 10:26:17;;;;;;;0.85;0.40;;;;;;;;;;5050796;28;20033;-69
2022/12/01 10:28:45;;;;;;;0.20;0.20;;;;;;;;;;5067445;28;20380;-68
2022/12/01 10:31:25;;;;;;;0.82;0.82;;;;;;;;;;5068308;28;20024;-69
2022/12/01 10:33:59;;;;;;;0.20;0.20;;;;;;;;;;5068131;28;20037;-69
2022/12/01 10:36:25;;;;;;;0.10;0.10;;;;;;;;;;5067360;28;20074;-68
2022/12/01 10:38:50;;;;;;;0.20;0.20;;;;;;;;;;5068217;28;20111;-69
2022/12/01 10:41:17;;;;;;;1.00;1.00;;;;;;;;;;5069243;28;20138;-68
2022/12/01 10:43:46;;;;;;;0.10;0.10;;;;;;;;;;5071543;28;20032;-68
2022/12/01 10:46:30;;;;;;;0.20;0.20;;;;;;;;;;5071343;28;20044;-69
2022/12/01 10:48:57;;;;;;;0.10;0.10;;;;;;;;;;5070787;28;20029;-69
2022/12/01 10:51:23;;;;;;;0.20;0.20;;;;;;;;;;5071450;28;20409;-69
2022/12/01 10:53:48;;;;;;;0.40;0.40;;;;;;;;;;5069414;28;20025;-69
2022/12/01 10:56:15;;;;;;;0.55;0.50;;;;;;;;;;5070744;28;20150;-69
2022/12/01 10:58:43;;;;;;;0.38;0.38;;;;;;;;;;5069628;28;20039;-68
2022/12/01 11:01:14;;;;;;;0.20;0.20;;;;;;;;;;5069720;28;20123;-68
2022/12/01 11:03:40;;;;;;;1.80;1.65;;;;;;;;;;5071284;28;20032;-69
2022/12/01 11:06:06;;;;;;;0.25;0.25;;;;;;;;;;5071727;28;20294;-68
2022/12/01 11:08:35;;;;;;;0.20;0.20;;;;;;;;;;5071449;28;20028;-68
2022/12/01 11:11:01;;;;;;;0.20;0.20;;;;;;;;;;5053491;28;20032;-70
2022/12/01 11:13:28;;;;;;;0.60;0.60;;;;;;;;;;5071266;28;20510;-69
2022/12/01 11:15:54;;;;;;;0.22;0.22;;;;;;;;;;5070709;28;20396;-69
2022/12/01 11:18:26;;;;;;;1.13;1.02;;;;;;;;;;5070128;28;20475;-70
2022/12/01 11:21:07;;;;;;;0.20;0.20;;;;;;;;;;5071327;28;20028;-69
2022/12/01 11:23:37;;;;;;;0.30;0.30;;;;;;;;;;5103475;28;20078;-69
2022/12/01 11:26:09;;;;;;;0.25;0.25;;;;;;;;;;5069633;28;20389;-67
2022/12/01 11:28:35;;;;;;;2.47;1.23;;;;;;;;;;5053011;28;20032;-68
2022/12/01 11:31:04;;;;;;;0.20;0.20;;;;;;;;;;5053279;28;20029;-67
2022/12/01 11:33:31;;;;;;;0.60;0.57;;;;;;;;;;5070354;28;20025;-69
2022/12/01 11:35:57;;;;;;;0.40;0.40;;;;;;;;;;5050688;28;20055;-68
2022/12/01 11:38:29;;;;;;;0.40;0.40;;;;;;;;;;5058478;28;20060;-68
2022/12/01 11:40:56;;;;;;;0.28;0.28;;;;;;;;;;5039852;28;20029;-68
2022/12/01 11:43:21;;;;;;;0.13;0.13;;;;;;;;;;5055664;28;20115;-68
2022/12/01 11:45:46;;;;;;;0.20;0.20;;;;;;;;;;5064807;28;20560;-68
2022/12/01 11:48:14;;;;;;;0.10;0.10;;;;;;;;;;5068815;28;20054;-68
2022/12/01 11:50:41;;;;;;;1.45;0.70;;;;;;;;;;5067276;28;20034;-70
2022/12/01 11:53:24;;;;;;;0.20;0.20;;;;;;;;;;5052295;28;20078;-69
2022/12/01 11:55:50;;;;;;;0.20;0.20;;;;;;;;;;5084757;28;20028;-68
2022/12/01 11:58:15;;;;;;;0.65;0.63;;;;;;;;;;5070235;28;20021;-69
2022/12/01 12:00:53;;;;;;;1.05;1.05;;;;;;;;;;5070601;28;20032;-69
2022/12/01 12:03:51;;;;;;;7.57;2.60;;;;;;;;;;5052227;28;20472;-69
2022/12/01 12:06:22;;;;;;;1.80;1.67;;;;;;;;;;5046994;28;20072;-68
2022/12/01 12:08:53;;;;;;;2.05;1.10;;;;;;;;;;5069144;28;20024;-68
2022/12/01 12:11:23;;;;;;;0.77;0.77;;;;;;;;;;5051419;28;20044;-68
2022/12/01 12:13:48;;;;;;;0.20;0.20;;;;;;;;;;5064823;28;20036;-68
2022/12/01 12:16:34;;;;;;;2.42;1.45;;;;;;;;;;5060602;28;20364;-69
2022/12/01 12:19:06;;;;;;;0.47;0.47;;;;;;;;;;5063864;28;20032;-68
2022/12/01 12:21:32;;;;;;;4.38;3.03;;;;;;;;;;5050972;28;20060;-70
2022/12/01 12:24:09;;;;;;;1.52;1.15;;;;;;;;;;5063446;28;20052;-69
2022/12/01 12:26:54;;;;;;;0.63;0.60;;;;;;;;;;5067171;28;20071;-69
2022/12/01 12:29:38;;;;;;;0.30;0.30;;;;;;;;;;5070284;28;20052;-68
2022/12/01 12:32:14;;;;;;;2.47;2.13;;;;;;;;;;5067796;28;20039;-70
2022/12/01 12:34:55;;;;;;;0.30;0.30;;;;;;;;;;5056157;28;20040;-69
2022/12/01 12:37:28;;;;;;;1.42;0.95;;;;;;;;;;5063224;28;20081;-69
2022/12/01 12:40:01;;;;;;;0.63;0.63;;;;;;;;;;5065102;28;20809;-68
2022/12/01 12:42:27;;;;;;;1.25;0.95;;;;;;;;;;5063925;28;20035;-68
2022/12/01 12:44:58;;;;;;;0.80;0.60;;;;;;;;;;5066049;28;20048;-68
2022/12/01 12:47:42;;;;;;;1.63;0.98;;;;;;;;;;5067305;28;20021;-68
2022/12/01 12:50:27;;;;;;;2.15;1.02;;;;;;;;;;5065201;28;20079;-70
2022/12/01 12:52:55;;;;;;;1.42;0.90;;;;;;;;;;5053632;28;20040;-67
2022/12/01 12:55:31;;;;;;;1.10;1.00;;;;;;;;;;5068421;28;20379;-68
2022/12/01 12:58:03;;;;;;;4.50;1.98;;;;;;;;;;5067048;28;20025;-70
2022/12/01 13:00:29;;;;;;;0.98;0.88;;;;;;;;;;5050842;28;20041;-70
2022/12/01 13:02:55;;;;;;;0.57;0.40;;;;;;;;;;5064716;28;20037;-68
2022/12/01 13:05:48;;;;;;;0.30;0.30;;;;;;;;;;5056648;28;20094;-68
2022/12/01 13:08:22;;;;;;;0.50;0.50;;;;;;;;;;5042649;28;20037;-69
2022/12/01 13:10:51;;;;;;;3.78;1.45;;;;;;;;;;5051109;28;20120;-70
2022/12/01 13:13:23;;;;;;;1.20;0.93;;;;;;;;;;5067855;28;20048;-69
2022/12/01 13:15:51;;;;;;;1.25;0.88;;;;;;;;;;5050722;28;20033;-69
2022/12/01 13:18:25;;;;;;;0.73;0.50;;;;;;;;;;5051412;28;20391;-69
2022/12/01 13:20:51;;;;;;;0.20;0.20;;;;;;;;;;5048062;28;20495;-68
2022/12/01 13:23:18;;;;;;;0.65;0.65;;;;;;;;;;5041814;28;20040;-69
2022/12/01 13:25:47;;;;;;;1.05;0.95;;;;;;;;;;5055913;28;20041;-68
2022/12/01 13:28:16;;;;;;;1.33;1.20;;;;;;;;;;5053233;28;20033;-69
2022/12/01 13:30:55;;;;;;;1.92;0.85;;;;;;;;;;5069181;28;20012;-69
2022/12/01 13:33:20;;;;;;;;;;;;;;;;;;5069352;28;20597;-68
2022/12/01 13:35:51;;;;;;;0.57;0.57;;;;;;;;;;5060360;28;19908;-69
2022/12/01 13:38:20;;;;;;;0.65;0.47;;;;;;;;;;5083485;28;20021;-69
2022/12/01 13:40:45;;;;;;;0.22;0.22;;;;;;;;;;5067639;28;20024;-69
2022/12/01 13:43:19;;;;;;;0.20;0.20;;;;;;;;;;5067768;28;20039;-70
2022/12/01 13:45:45;;;;;;;0.57;0.50;;;;;;;;;;5048388;28;20127;-70
2022/12/01 13:48:26;;;;;;;0.93;0.88;;;;;;;;;;5067365;28;20146;-69
2022/12/01 13:50:51;;;;;;;0.47;0.45;;;;;;;;;;5067307;28;20369;-69
2022/12/01 13:53:26;;;;;;;0.32;0.32;;;;;;;;;;5067703;28;20066;-69
2022/12/01 13:56:06;;;;;;;0.40;0.40;;;;;;;;;;5067270;28;20412;-69
2022/12/01 13:58:32;;;;;;;1.45;1.10;;;;;;;;;;5049785;28;20434;-69
2022/12/01 14:01:16;;;;;;;1.00;0.80;;;;;;;;;;5069053;28;20040;-68
2022/12/01 14:03:50;;;;;;;1.05;0.75;;;;;;;;;;5064492;28;20028;-72
2022/12/01 14:06:23;;;;;;;1.23;1.10;;;;;;;;;;5068620;28;20045;-70
2022/12/01 14:08:50;;;;;;;0.70;0.50;;;;;;;;;;5067269;28;20083;-70
2022/12/01 14:11:19;;;;;;;0.38;0.38;;;;;;;;;;5069239;28;20517;-70
2022/12/01 14:13:48;;;;;;;8.10;2.92;;;;;;;;;;5068336;28;20028;-70
2022/12/01 14:16:14;;;;;;;4.15;3.20;;;;;;;;;;5085397;28;20037;-70
2022/12/01 14:18:41;;;;;;;0.80;0.68;;;;;;;;;;5054352;28;20051;-70
2022/12/01 14:21:09;;;;;;;1.83;1.65;;;;;;;;;;5069938;28;20536;-71
2022/12/01 14:23:40;;;;;;;1.48;0.85;;;;;;;;;;5054169;28;20143;-70
2022/12/01 14:26:17;;;;;;;0.50;0.50;;;;;;;;;;5070958;28;20396;-71
2022/12/01 14:28:54;;;;;;;1.75;1.35;;;;;;;;;;5054325;28;20523;-71
2022/12/01 14:31:45;;;;;;;0.70;0.70;;;;;;;;;;5071711;28;20107;-70
2022/12/01 14:34:13;;;;;;;0.40;0.40;;;;;;;;;;5045914;28;20041;-70
2022/12/01 14:36:49;;;;;;;0.90;0.90;;;;;;;;;;5039752;28;20569;-69
2022/12/01 14:39:19;;;;;;;0.30;0.30;;;;;;;;;;5053923;28;20054;-70
2022/12/01 14:41:49;;;;;;;0.50;0.50;;;;;;;;;;5067985;28;20035;-71
2022/12/01 14:44:21;;;;;;;0.60;0.60;;;;;;;;;;5087446;28;20024;-69
2022/12/01 14:47:14;;;;;;;2.38;1.35;;;;;;;;;;5067738;28;20055;-70
2022/12/01 14:49:49;;;;;;;2.42;1.40;;;;;;;;;;5023961;28;20115;-70
2022/12/01 14:52:27;;;;;;;0.90;0.65;;;;;;;;;;5071828;28;20531;-70
2022/12/01 14:54:54;;;;;;;3.30;2.17;;;;;;;;;;5071485;28;20024;-70
2022/12/01 14:57:23;;;;;;;1.20;1.10;;;;;;;;;;5071378;28;20032;-70